Time;durP1;ratioP1;P1;durP2;ratioP2;P2;SDS_P1;SDS_P2;PMS_P1;PMS_P2;Temp;Humidity;BMP_temperature;BMP_pressure;BME280_temperature;BME280_humidity;BME280_pressure;Samples;Min_cycle;Max_cycle;Signal;HPM_P1;HPM_P2
2023/08/23 00:02:37;;;;;;;4.13;3.22;;;;;;;27.67;40.00;99993.56;10381437;28;20734;-65
2023/08/23 00:07:39;;;;;;;8.50;3.47;;;;;;;27.53;39.85;100009.94;10384001;28;20231;-65
2023/08/23 00:12:41;;;;;;;5.85;3.38;;;;;;;27.10;40.81;100001.63;10392635;28;20319;-64
2023/08/23 00:17:42;;;;;;;6.35;3.28;;;;;;;27.09;40.58;100010.94;10390035;28;20876;-65
2023/08/23 00:22:44;;;;;;;7.18;3.65;;;;;;;26.22;41.86;100015.25;10387086;28;20229;-65
2023/08/23 00:27:46;;;;;;;8.82;3.28;;;;;;;26.81;40.63;100005.19;10386269;28;20773;-65
2023/08/23 00:33:01;;;;;;;7.45;3.70;;;;;;;27.20;40.87;99989.72;10392777;28;20709;-64
2023/08/23 00:38:03;;;;;;;6.47;3.65;;;;;;;26.62;41.31;100015.22;10390716;28;20294;-65
2023/08/23 00:43:07;;;;;;;4.63;3.22;;;;;;;27.44;40.41;99981.47;10389337;28;20232;-65
2023/08/23 00:48:11;;;;;;;7.07;3.20;;;;;;;27.15;40.23;99996.06;10388262;28;20639;-65
2023/08/23 00:53:14;;;;;;;4.93;3.75;;;;;;;27.06;40.22;99997.78;10386601;28;20228;-66
2023/08/23 00:58:15;;;;;;;4.55;3.72;;;;;;;26.70;41.15;99976.16;10406520;28;20251;-65
2023/08/23 01:03:17;;;;;;;6.25;3.90;;;;;;;25.47;42.47;99997.78;10405366;28;20242;-65
2023/08/23 01:08:32;;;;;;;5.55;3.72;;;;;;;25.60;42.61;99990.84;10414580;28;20326;-65
2023/08/23 01:13:42;;;;;;;6.30;3.70;;;;;;;26.89;40.78;99977.13;10434062;28;20306;-65
2023/08/23 01:18:44;;;;;;;6.00;3.60;;;;;;;26.38;41.11;100007.72;10431901;28;20318;-65
2023/08/23 01:23:46;;;;;;;4.70;3.67;;;;;;;26.98;40.63;99966.31;10424587;28;20228;-65
2023/08/23 01:28:51;;;;;;;4.43;3.47;;;;;;;25.78;41.70;100010.53;10425087;28;20238;-65
2023/08/23 01:34:03;;;;;;;5.25;4.00;;;;;;;26.46;41.43;99992.59;10423882;28;20229;-64
2023/08/23 01:39:06;;;;;;;6.07;3.92;;;;;;;26.52;41.49;99996.94;10420767;28;20703;-65
2023/08/23 01:44:07;;;;;;;7.50;3.83;;;;;;;26.34;41.87;100010.22;10424176;28;20235;-65
2023/08/23 01:49:10;;;;;;;6.80;3.95;;;;;;;26.17;41.78;100026.22;10425649;28;20311;-65
2023/08/23 01:54:11;;;;;;;6.55;3.97;;;;;;;26.36;41.39;100007.19;10424913;28;20301;-65
2023/08/23 01:59:13;;;;;;;4.43;3.83;;;;;;;27.01;40.25;99982.22;10422712;28;20728;-64
2023/08/23 02:04:17;;;;;;;5.85;4.13;;;;;;;26.97;40.73;99994.06;10426678;28;20235;-64
2023/08/23 02:09:18;;;;;;;6.38;4.35;;;;;;;25.52;42.89;100009.78;10427435;28;20227;-65
2023/08/23 02:14:20;;;;;;;5.10;3.70;;;;;;;26.23;41.83;99985.91;10424899;28;20255;-64
2023/08/23 02:19:22;;;;;;;6.15;4.13;;;;;;;25.65;42.57;100011.94;10401837;28;20308;-65
2023/08/23 02:24:23;;;;;;;7.38;4.03;;;;;;;26.33;41.58;100002.28;10414721;28;21053;-64
2023/08/23 02:29:26;;;;;;;7.38;4.00;;;;;;;27.21;39.86;99989.41;10428975;28;20234;-64
2023/08/23 02:34:28;;;;;;;5.85;4.40;;;;;;;26.60;41.29;100000.97;10430811;28;20314;-64
2023/08/23 02:39:29;;;;;;;7.18;4.03;;;;;;;26.33;41.56;100005.84;10422449;28;20784;-65
2023/08/23 02:44:31;;;;;;;4.57;3.78;;;;;;;25.62;42.31;100029.75;10426374;28;20327;-65
2023/08/23 02:49:33;;;;;;;5.63;4.38;;;;;;;25.56;42.80;100002.66;10431398;28;20255;-65
2023/08/23 02:54:34;;;;;;;5.90;4.45;;;;;;;24.88;44.04;99982.84;10423044;28;20239;-65
2023/08/23 02:59:36;;;;;;;4.53;4.13;;;;;;;25.38;42.92;99988.47;10427835;28;20777;-65
2023/08/23 03:04:38;;;;;;;6.25;4.43;;;;;;;25.70;42.47;99990.00;10428450;28;20239;-65
2023/08/23 03:09:39;;;;;;;5.47;4.38;;;;;;;26.19;41.35;99996.59;10423093;28;20768;-65
2023/08/23 03:14:41;;;;;;;6.47;4.43;;;;;;;25.87;41.98;100008.03;10426290;28;20299;-65
2023/08/23 03:19:43;;;;;;;6.78;4.40;;;;;;;25.85;42.16;100002.81;10426490;28;20230;-65
2023/08/23 03:24:45;;;;;;;7.13;4.57;;;;;;;25.58;42.41;99993.06;10395356;28;20244;-64
2023/08/23 03:29:46;;;;;;;10.45;5.00;;;;;;;25.22;43.31;99970.44;10416459;28;20223;-65
2023/08/23 03:34:48;;;;;;;10.85;4.95;;;;;;;24.54;43.42;100023.56;10423426;28;20680;-67
2023/08/23 03:39:50;;;;;;;7.03;4.30;;;;;;;25.50;42.35;99992.81;10418742;28;20861;-67
2023/08/23 03:44:52;;;;;;;7.50;5.10;;;;;;;24.73;43.58;100010.19;10425648;28;20323;-68
2023/08/23 03:49:53;;;;;;;5.57;4.65;;;;;;;25.48;42.47;99979.41;10429404;28;20231;-69
2023/08/23 03:54:55;;;;;;;7.57;4.20;;;;;;;25.14;42.79;100007.41;10429679;28;20231;-68
2023/08/23 03:59:57;;;;;;;6.57;4.82;;;;;;;24.87;43.55;100013.22;10431255;28;20317;-64
2023/08/23 04:04:58;;;;;;;6.78;4.97;;;;;;;24.40;43.95;99986.94;10432010;28;20599;-64
2023/08/23 04:10:00;;;;;;;6.60;4.43;;;;;;;25.50;42.63;99971.72;10430169;28;20318;-66
2023/08/23 04:15:02;;;;;;;8.40;5.40;;;;;;;23.63;45.35;100021.16;10433081;28;20235;-67
2023/08/23 04:20:06;;;;;;;8.27;5.82;;;;;;;22.55;46.86;100016.84;10435232;28;20842;-65
2023/08/23 04:25:08;;;;;;;8.07;5.75;;;;;;;24.85;43.12;99972.44;10433636;28;20228;-64
2023/08/23 04:30:10;;;;;;;5.68;4.95;;;;;;;24.98;43.10;99979.25;10431033;28;20234;-66
2023/08/23 04:35:11;;;;;;;8.88;5.30;;;;;;;24.02;44.24;100011.72;10432824;28;20339;-66
2023/08/23 04:40:13;;;;;;;8.55;5.65;;;;;;;24.78;43.65;99974.66;10433041;28;20758;-66
2023/08/23 04:45:15;;;;;;;8.55;6.25;;;;;;;24.10;43.72;100022.13;10433679;28;20393;-64
2023/08/23 04:50:17;;;;;;;6.10;5.35;;;;;;;25.30;42.59;99980.84;10396936;28;20311;-66
2023/08/23 04:55:18;;;;;;;8.63;6.75;;;;;;;22.12;47.67;100038.47;10387222;28;20324;-66
2023/08/23 05:00:20;;;;;;;8.50;5.97;;;;;;;24.58;43.90;99977.34;10382953;28;20208;-66
2023/08/23 05:05:22;;;;;;;7.45;6.40;;;;;;;24.77;43.38;100005.84;10386690;28;20618;-66
2023/08/23 05:10:23;;;;;;;8.00;5.85;;;;;;;25.01;43.38;99986.09;10386776;28;20236;-66
2023/08/23 05:15:25;;;;;;;9.15;6.40;;;;;;;25.24;43.21;99977.31;10388099;28;20228;-66
2023/08/23 05:20:27;;;;;;;9.70;6.47;;;;;;;24.91;43.66;99967.78;10381701;28;20213;-66
2023/08/23 05:25:29;;;;;;;7.88;6.20;;;;;;;24.55;43.51;100028.78;10382287;28;20352;-66
2023/08/23 05:30:31;;;;;;;7.75;6.50;;;;;;;25.12;43.39;99990.47;10382689;28;20255;-66
2023/08/23 05:35:33;;;;;;;10.48;6.43;;;;;;;24.78;43.75;100020.31;10384957;28;20340;-66
2023/08/23 05:40:35;;;;;;;8.98;6.63;;;;;;;23.57;45.05;100070.53;10380990;28;20616;-66
2023/08/23 05:45:37;;;;;;;8.35;6.32;;;;;;;25.13;42.90;100007.69;10382295;28;20320;-66
2023/08/23 05:50:38;;;;;;;6.88;5.88;;;;;;;25.47;43.07;100007.88;10382811;28;20240;-66
2023/08/23 05:55:40;;;;;;;10.27;6.68;;;;;;;24.22;45.14;100059.34;10381873;28;20349;-64
2023/08/23 06:00:42;;;;;;;12.13;6.60;;;;;;;24.71;44.91;100015.97;10384548;28;20326;-66
2023/08/23 06:05:45;;;;;;;7.20;5.75;;;;;;;25.32;43.67;100005.19;10384660;28;20266;-66
2023/08/23 06:10:46;;;;;;;11.50;6.68;;;;;;;22.60;47.40;100068.69;10382370;28;20481;-65
2023/08/23 06:15:48;;;;;;;9.30;5.88;;;;;;;24.99;44.30;100021.13;10381021;28;20224;-65
2023/08/23 06:20:50;;;;;;;9.05;6.00;;;;;;;25.07;44.87;99993.22;10383148;28;20593;-65
2023/08/23 06:25:58;;;;;;;9.98;6.28;;;;;;;24.89;44.73;100032.91;10377323;28;20233;-65
2023/08/23 06:31:00;;;;;;;7.90;6.03;;;;;;;25.01;44.83;100035.38;10382709;28;20229;-66
2023/08/23 06:36:05;;;;;;;13.50;6.22;;;;;;;24.76;44.86;100025.25;10386575;28;20236;-66
2023/08/23 06:41:07;;;;;;;11.30;6.10;;;;;;;23.78;46.14;100066.00;10383624;28;20388;-65
2023/08/23 06:46:09;;;;;;;7.72;5.45;;;;;;;25.13;44.04;100024.94;10379972;28;21644;-65
2023/08/23 06:51:11;;;;;;;10.13;5.93;;;;;;;25.73;43.76;100008.66;10379201;28;20289;-65
2023/08/23 06:56:12;;;;;;;8.60;7.78;;;;;;;23.79;45.98;100059.47;10382645;28;20236;-65
2023/08/23 07:01:15;;;;;;;12.20;7.90;;;;;;;25.38;44.30;100015.06;10382677;28;20228;-65
2023/08/23 07:06:19;;;;;;;8.30;7.32;;;;;;;25.14;43.87;100040.28;10378788;28;20295;-65
2023/08/23 07:11:20;;;;;;;12.43;6.80;;;;;;;25.16;44.39;100038.06;10382645;28;20328;-66
2023/08/23 07:16:22;;;;;;;9.95;6.65;;;;;;;24.56;44.90;100056.94;10382397;28;20786;-64
2023/08/23 07:21:24;;;;;;;10.18;5.82;;;;;;;25.66;43.80;100024.53;10390106;28;20414;-66
2023/08/23 07:26:26;;;;;;;7.72;6.35;;;;;;;24.31;45.40;100072.25;10387420;28;20232;-66
2023/08/23 07:31:27;;;;;;;9.80;5.63;;;;;;;24.47;45.53;100066.78;10388442;28;20228;-65
2023/08/23 07:36:29;;;;;;;9.57;5.47;;;;;;;24.06;46.07;100091.28;10389060;28;20232;-65
2023/08/23 07:41:32;;;;;;;9.93;5.68;;;;;;;23.86;45.77;100097.47;10387940;28;20742;-65
2023/08/23 07:46:33;;;;;;;7.70;5.63;;;;;;;23.71;46.60;100096.31;10390207;28;20235;-65
2023/08/23 07:51:35;;;;;;;6.65;4.63;;;;;;;24.58;45.25;100053.94;10389118;28;20244;-67
2023/08/23 07:56:36;;;;;;;6.85;4.70;;;;;;;26.32;43.12;100033.56;10383494;28;20236;-67
2023/08/23 08:01:38;;;;;;;7.65;4.70;;;;;;;25.76;43.49;100064.78;10387548;28;20247;-67
2023/08/23 08:06:40;;;;;;;9.10;4.65;;;;;;;26.23;43.33;100052.53;10388650;28;20229;-67
2023/08/23 08:11:42;;;;;;;10.18;4.07;;;;;;;24.64;45.22;100104.84;10387024;28;20700;-67
2023/08/23 08:16:43;;;;;;;5.43;4.50;;;;;;;26.15;43.12;100053.13;10389718;28;20234;-67
2023/08/23 08:21:45;;;;;;;7.63;4.32;;;;;;;25.29;45.02;100050.41;10384713;28;20323;-66
2023/08/23 08:26:47;;;;;;;7.18;4.75;;;;;;;24.48;45.68;100068.44;10384347;28;20268;-66
2023/08/23 08:31:50;;;;;;;5.60;3.88;;;;;;;27.38;41.86;100001.88;10386069;28;20703;-67
2023/08/23 08:36:52;;;;;;;5.63;4.07;;;;;;;25.24;44.69;100075.88;10386602;28;20237;-67
2023/08/23 08:41:55;;;;;;;6.45;3.83;;;;;;;25.92;43.37;100033.47;10383386;28;20269;-67
2023/08/23 08:46:57;;;;;;;6.38;4.40;;;;;;;27.00;42.91;100020.94;10383136;28;20228;-66
2023/08/23 08:52:03;;;;;;;5.15;3.85;;;;;;;25.49;44.45;100060.50;10384341;28;20236;-67
2023/08/23 08:57:05;;;;;;;4.30;3.90;;;;;;;26.71;43.24;100046.44;10383408;28;20665;-67
2023/08/23 09:02:10;;;;;;;5.50;4.00;;;;;;;26.89;42.26;100064.97;10384108;28;20260;-67
2023/08/23 09:07:13;;;;;;;6.85;4.25;;;;;;;26.34;43.10;100072.50;10382194;28;20237;-67
2023/08/23 09:12:15;;;;;;;5.50;3.78;;;;;;;26.15;43.24;100080.53;10387091;28;20232;-67
2023/08/23 09:17:22;;;;;;;6.70;4.43;;;;;;;25.71;43.83;100062.88;10382823;28;20525;-67
2023/08/23 09:22:24;;;;;;;7.50;3.70;;;;;;;28.94;40.49;99976.19;10381434;28;20637;-66
2023/08/23 09:27:26;;;;;;;6.50;4.03;;;;;;;25.52;44.67;100072.81;10383079;28;20335;-66
2023/08/23 09:32:39;;;;;;;10.63;4.05;;;;;;;28.64;40.65;99999.56;10384649;28;20252;-67
2023/08/23 09:37:48;;;;;;;5.85;3.50;;;;;;;29.04;41.13;100008.22;10386049;28;20241;-67
2023/08/23 09:42:52;;;;;;;5.18;4.30;;;;;;;28.46;40.79;100022.44;10381906;28;20734;-67
2023/08/23 09:48:02;;;;;;;5.57;3.97;;;;;;;28.45;40.62;100038.13;10381534;28;20624;-67
2023/08/23 09:53:08;;;;;;;6.88;3.80;;;;;;;28.15;40.77;100042.13;10382712;28;20229;-67
2023/08/23 09:58:10;;;;;;;6.43;4.30;;;;;;;28.88;40.25;100029.75;10382015;28;20339;-66
2023/08/23 10:03:12;;;;;;;6.10;4.10;;;;;;;29.47;39.92;99993.34;10381405;28;20235;-65
2023/08/23 10:08:14;;;;;;;7.03;3.80;;;;;;;28.89;40.07;100023.09;10380805;28;20243;-65
2023/08/23 10:13:17;;;;;;;5.50;4.10;;;;;;;28.70;40.58;100014.91;10382422;28;20254;-66
2023/08/23 10:18:20;;;;;;;6.22;3.67;;;;;;;30.16;38.16;99987.75;10386307;28;20731;-67
2023/08/23 10:23:22;;;;;;;5.18;4.00;;;;;;;30.52;38.51;99981.38;10378085;28;20283;-66
2023/08/23 10:28:24;;;;;;;7.97;3.40;;;;;;;29.75;40.25;100015.41;10378285;28;20238;-67
2023/08/23 10:33:25;;;;;;;7.63;3.53;;;;;;;30.13;38.72;100015.97;10383821;28;20409;-67
2023/08/23 10:38:27;;;;;;;6.70;3.53;;;;;;;30.18;38.84;100021.38;10383951;28;20233;-64
2023/08/23 10:43:31;;;;;;;7.22;2.90;;;;;;;31.06;36.94;99997.91;10383204;28;20715;-64
2023/08/23 10:48:34;;;;;;;7.30;3.70;;;;;;;30.51;37.64;100003.78;10380694;28;20232;-67
2023/08/23 10:53:36;;;;;;;4.00;3.20;;;;;;;31.52;36.64;99982.78;10382733;28;20236;-64
2023/08/23 10:58:38;;;;;;;4.90;3.30;;;;;;;29.88;36.69;100026.41;10380997;28;20719;-67
2023/08/23 11:06:18;;;;;;;5.00;2.85;;;;;;;27.67;40.58;99955.88;10542741;27;2059610;-66
2023/08/23 11:11:20;;;;;;;4.68;3.25;;;;;;;29.05;39.94;99932.75;10540384;28;20222;-66
2023/08/23 11:16:22;;;;;;;3.85;2.97;;;;;;;28.89;38.64;99972.72;10540922;28;20229;-66
2023/08/23 11:21:25;;;;;;;5.47;3.10;;;;;;;29.46;38.58;99953.16;10537608;28;20229;-66
2023/08/23 11:26:27;;;;;;;4.03;2.90;;;;;;;28.99;39.09;99975.28;10542141;28;20851;-66
2023/08/23 11:31:31;;;;;;;5.07;3.10;;;;;;;27.97;40.33;99980.50;10542893;28;20226;-65
2023/08/23 11:36:34;;;;;;;4.72;3.08;;;;;;;29.27;38.90;99948.59;10537230;28;20238;-66
2023/08/23 11:41:36;;;;;;;5.30;3.30;;;;;;;29.22;38.27;99956.13;10535721;28;20222;-67
2023/08/23 11:46:38;;;;;;;5.57;2.90;;;;;;;29.24;39.14;99953.91;10541240;28;20252;-66
2023/08/23 11:51:44;;;;;;;7.78;3.35;;;;;;;30.24;36.91;99966.84;10543795;28;20222;-67
2023/08/23 11:56:45;;;;;;;6.65;3.00;;;;;;;28.47;38.53;100021.31;10537423;28;20252;-66
2023/08/23 12:01:47;;;;;;;5.05;3.38;;;;;;;30.18;37.61;99946.88;10539221;28;20621;-67
2023/08/23 12:06:49;;;;;;;4.72;3.17;;;;;;;28.93;38.74;99998.50;10543539;28;24292;-67
2023/08/23 12:11:52;;;;;;;5.75;3.33;;;;;;;30.07;38.22;99937.19;10539359;28;20223;-67
2023/08/23 12:16:55;;;;;;;9.38;3.30;;;;;;;30.33;37.32;99929.13;10510715;28;20246;-67
2023/08/23 12:21:56;;;;;;;5.63;3.20;;;;;;;30.51;36.88;99968.69;10510215;28;20501;-67
2023/08/23 12:26:59;;;;;;;4.22;3.10;;;;;;;29.41;36.71;99989.09;10503295;28;20303;-66
2023/08/23 12:32:00;;;;;;;4.78;3.05;;;;;;;30.67;36.61;99948.94;10512082;28;20597;-66
2023/08/23 12:37:02;;;;;;;3.38;2.88;;;;;;;30.26;37.06;99975.63;10509514;28;20232;-66
2023/08/23 12:42:04;;;;;;;4.25;3.08;;;;;;;30.22;37.12;99958.09;10509637;28;20227;-66
2023/08/23 12:47:06;;;;;;;4.57;3.30;;;;;;;29.38;37.65;100001.53;10505121;28;20227;-66
2023/08/23 12:52:09;;;;;;;5.25;2.90;;;;;;;30.99;36.55;99934.03;10503691;28;20375;-66
2023/08/23 12:57:10;;;;;;;4.95;3.13;;;;;;;30.81;36.03;99953.25;10503689;28;20241;-66
2023/08/23 13:02:12;;;;;;;5.63;3.05;;;;;;;30.69;36.93;99947.53;10504654;28;20229;-66
2023/08/23 13:07:14;;;;;;;5.70;3.00;;;;;;;30.44;36.35;99965.53;10505320;28;20234;-66
2023/08/23 13:12:15;;;;;;;5.18;3.30;;;;;;;29.62;37.26;99989.50;10507982;28;20721;-66
2023/08/23 13:17:17;;;;;;;4.30;2.78;;;;;;;31.13;36.04;99950.50;10509077;28;20391;-66
2023/08/23 13:22:19;;;;;;;4.78;2.88;;;;;;;30.68;36.63;99945.06;10510275;28;20313;-66
2023/08/23 13:27:20;;;;;;;6.05;3.15;;;;;;;30.57;35.85;99936.25;10503773;28;20496;-66
2023/08/23 13:32:22;;;;;;;3.65;2.80;;;;;;;30.91;36.25;99926.50;10504175;28;20317;-66
2023/08/23 13:37:28;;;;;;;3.45;3.03;;;;;;;30.43;36.47;99912.28;10502672;28;20238;-66
2023/08/23 13:42:30;;;;;;;5.50;2.85;;;;;;;30.54;35.64;99940.44;10508825;28;20258;-66
2023/08/23 13:47:32;;;;;;;3.67;3.22;;;;;;;30.34;36.15;99929.91;10509890;28;20317;-66
2023/08/23 13:52:34;;;;;;;6.10;3.10;;;;;;;29.68;35.82;99931.19;10507328;28;20230;-66
2023/08/23 13:57:37;;;;;;;5.07;3.15;;;;;;;29.22;35.98;99947.84;10506523;28;20321;-66
2023/08/23 14:02:38;;;;;;;5.47;2.63;;;;;;;31.44;35.46;99919.19;10504178;28;20321;-68
2023/08/23 14:07:40;;;;;;;6.10;3.05;;;;;;;30.81;36.21;99941.41;10495235;28;20351;-66
2023/08/23 14:12:42;;;;;;;3.75;2.65;;;;;;;30.05;36.08;99939.47;10499852;28;20654;-66
2023/08/23 14:17:44;;;;;;;3.10;2.80;;;;;;;31.03;36.60;99931.44;10499097;28;20235;-66
2023/08/23 14:22:45;;;;;;;5.32;2.92;;;;;;;31.17;35.74;99898.97;10497439;28;20226;-66
2023/08/23 14:27:47;;;;;;;3.95;2.90;;;;;;;30.45;36.94;99928.53;10500830;28;20232;-66
2023/08/23 14:32:50;;;;;;;5.03;2.75;;;;;;;31.24;35.64;99904.00;10497944;28;20251;-66
2023/08/23 14:37:52;;;;;;;3.55;2.60;;;;;;;30.31;35.60;99936.06;10499954;28;20230;-66
2023/08/23 14:42:54;;;;;;;4.57;2.60;;;;;;;29.97;35.99;99934.66;10506535;28;20223;-66
2023/08/23 14:47:55;;;;;;;7.75;3.17;;;;;;;31.27;35.28;99920.75;10505221;28;20636;-66
2023/08/23 14:52:57;;;;;;;4.57;2.80;;;;;;;30.75;36.93;99892.94;10508546;28;20309;-65
2023/08/23 14:57:59;;;;;;;4.35;2.33;;;;;;;31.07;36.08;99915.84;10503420;28;20313;-66
2023/08/23 15:03:02;;;;;;;6.80;2.85;;;;;;;29.79;37.11;99941.97;10506719;28;20263;-66
2023/08/23 15:08:05;;;;;;;5.00;2.67;;;;;;;30.08;36.91;99919.53;10499440;28;20239;-65
2023/08/23 15:13:10;;;;;;;4.15;3.00;;;;;;;30.81;36.48;99900.78;10502854;28;20313;-65
2023/08/23 15:18:11;;;;;;;4.30;2.85;;;;;;;30.04;35.84;99951.59;10501240;28;20244;-65
2023/08/23 15:23:13;;;;;;;6.05;3.03;;;;;;;30.81;36.32;99908.25;10508124;28;20234;-65
2023/08/23 15:28:15;;;;;;;4.47;3.17;;;;;;;31.29;35.54;99909.38;10504474;28;20226;-65
2023/08/23 15:33:16;;;;;;;5.65;2.83;;;;;;;30.77;35.49;99923.81;10510512;28;20834;-65
2023/08/23 15:38:18;;;;;;;4.82;2.83;;;;;;;30.35;35.86;99910.28;10501786;28;20678;-65
2023/08/23 15:43:20;;;;;;;4.32;2.60;;;;;;;31.84;35.32;99886.69;10500834;28;20227;-65
2023/08/23 15:48:21;;;;;;;5.63;3.13;;;;;;;31.40;35.78;99919.03;10508708;28;20240;-65
2023/08/23 15:53:23;;;;;;;4.53;3.00;;;;;;;32.65;34.13;99873.16;10511926;28;20245;-65
2023/08/23 15:58:25;;;;;;;6.30;3.20;;;;;;;31.96;36.17;99891.56;10515119;28;20753;-66
2023/08/23 16:03:27;;;;;;;3.53;3.00;;;;;;;32.21;34.63;99903.72;10508650;28;20312;-65
2023/08/23 16:08:29;;;;;;;4.90;2.83;;;;;;;31.84;35.48;99921.84;10510653;28;20226;-64
2023/08/23 16:13:30;;;;;;;5.18;3.33;;;;;;;32.23;35.11;99886.81;10509074;28;20231;-64
2023/08/23 16:18:32;;;;;;;6.97;2.63;;;;;;;31.96;35.56;99913.69;10508104;28;20247;-63
2023/08/23 16:23:34;;;;;;;6.35;2.75;;;;;;;31.31;35.33;99921.75;10510524;28;20445;-64
2023/08/23 16:28:39;;;;;;;4.68;2.95;;;;;;;33.09;34.27;99848.81;10505618;28;20249;-63
2023/08/23 16:33:41;;;;;;;4.13;2.55;;;;;;;32.45;34.07;99903.19;10509461;28;20661;-63
2023/08/23 16:38:43;;;;;;;3.35;2.65;;;;;;;32.49;34.31;99905.31;10504869;28;20238;-63
2023/08/23 16:43:44;;;;;;;4.00;2.70;;;;;;;32.05;34.79;99908.16;10518420;28;20431;-64
2023/08/23 16:48:49;;;;;;;4.07;2.53;;;;;;;33.38;33.54;99878.50;10507953;28;20241;-65
2023/08/23 16:53:51;;;;;;;4.10;2.95;;;;;;;32.99;33.95;99904.63;10507678;28;20754;-64
2023/08/23 16:58:53;;;;;;;5.60;2.72;;;;;;;32.45;34.91;99892.13;10508414;28;20230;-64
2023/08/23 17:03:54;;;;;;;4.53;2.70;;;;;;;34.06;32.93;99869.13;10507726;28;20325;-64
2023/08/23 17:08:56;;;;;;;5.45;2.70;;;;;;;33.67;33.30;99898.19;10505752;28;20436;-64
2023/08/23 17:13:58;;;;;;;3.35;2.70;;;;;;;33.70;34.05;99891.94;10508258;28;20234;-64
2023/08/23 17:18:59;;;;;;;6.82;2.85;;;;;;;33.75;33.91;99888.97;10514937;28;20610;-64
2023/08/23 17:24:02;;;;;;;3.90;3.13;;;;;;;33.13;34.12;99896.94;10497094;28;20802;-64
2023/08/23 17:29:03;;;;;;;6.57;2.75;;;;;;;33.42;34.20;99898.03;10507276;28;20456;-64
2023/08/23 17:34:05;;;;;;;3.85;2.90;;;;;;;32.03;35.94;99910.44;10512142;28;20775;-64
2023/08/23 17:39:07;;;;;;;3.20;2.90;;;;;;;32.86;34.52;99891.81;10509599;28;20234;-68
2023/08/23 17:44:08;;;;;;;5.13;2.65;;;;;;;32.91;34.33;99909.09;10511311;28;20337;-68
2023/08/23 17:49:11;;;;;;;5.35;2.78;;;;;;;32.21;35.21;99936.16;10504677;28;20753;-68
2023/08/23 17:54:12;;;;;;;3.67;2.53;;;;;;;32.65;34.25;99912.75;10501395;28;20325;-68
2023/08/23 17:59:14;;;;;;;3.35;2.80;;;;;;;32.03;35.02;99944.44;10504110;28;20235;-68
2023/08/23 18:04:16;;;;;;;7.28;5.60;;;;;;;32.00;35.20;99936.81;10508778;28;20267;-68
2023/08/23 18:09:18;;;;;;;4.20;3.10;;;;;;;32.13;35.23;99901.78;10511966;28;20240;-68
2023/08/23 18:14:21;;;;;;;4.60;2.60;;;;;;;32.19;34.93;99917.09;10508813;28;20273;-67
2023/08/23 18:19:22;;;;;;;4.78;3.13;;;;;;;31.16;36.21;99952.63;10504909;28;20226;-68
2023/08/23 18:24:24;;;;;;;3.80;2.60;;;;;;;32.22;34.83;99918.38;10499354;28;20233;-68
2023/08/23 18:29:26;;;;;;;3.95;2.85;;;;;;;32.33;35.34;99935.50;10501465;28;20223;-66
2023/08/23 18:34:33;;;;;;;7.30;3.70;;;;;;;31.62;35.90;99944.94;9762012;28;10001526;-68
2023/08/23 18:39:35;;;;;;;7.18;3.00;;;;;;;32.24;34.93;99927.19;10383747;28;20239;-68
2023/08/23 18:44:37;;;;;;;4.85;3.10;;;;;;;33.46;33.69;99921.16;9540787;28;10000288;-67
2023/08/23 18:49:40;;;;;;;4.45;2.92;;;;;;;33.18;34.04;99931.94;10406003;28;20293;-68
2023/08/23 18:54:42;;;;;;;6.60;3.17;;;;;;;32.96;34.66;99933.84;10391988;28;20270;-67
2023/08/23 18:59:44;;;;;;;4.97;3.20;;;;;;;32.03;34.62;99969.34;10409395;28;20228;-65
2023/08/23 19:04:46;;;;;;;7.10;3.10;;;;;;;32.55;34.71;99945.53;10408855;28;20282;-65
2023/08/23 19:09:47;;;;;;;4.70;2.83;;;;;;;32.16;34.99;99956.50;10422010;28;20233;-65
2023/08/23 19:14:49;;;;;;;4.47;3.05;;;;;;;32.05;35.53;99955.19;10414031;28;20227;-64
2023/08/23 19:19:51;;;;;;;5.10;3.38;;;;;;;31.96;36.59;99930.31;10410070;28;20238;-65
2023/08/23 19:24:53;;;;;;;4.88;3.00;;;;;;;31.16;36.21;99920.25;10399013;28;20254;-65
2023/08/23 19:29:54;;;;;;;5.10;3.42;;;;;;;31.11;36.54;99939.75;10411900;28;20310;-66
2023/08/23 19:34:56;;;;;;;5.28;3.40;;;;;;;28.60;39.80;99921.47;10414480;28;20231;-65
2023/08/23 19:39:58;;;;;;;9.15;3.80;;;;;;;29.10;39.15;99910.63;10412976;28;20236;-65
2023/08/23 19:45:02;;;;;;;6.07;3.72;;;;;;;28.91;40.17;99965.78;10402417;28;20394;-65
2023/08/23 19:50:05;;;;;;;5.10;3.97;;;;;;;29.94;38.95;99929.75;10413090;28;20852;-65
2023/08/23 19:55:07;;;;;;;6.18;4.13;;;;;;;30.90;38.31;99922.09;10412968;28;20610;-65
2023/08/23 20:00:09;;;;;;;7.60;4.07;;;;;;;30.75;38.51;99943.50;10416348;28;20243;-65
2023/08/23 20:05:10;;;;;;;5.30;3.58;;;;;;;31.01;38.09;99951.09;10416051;28;20243;-64
2023/08/23 20:10:14;;;;;;;7.10;3.95;;;;;;;29.80;40.03;99968.44;10411480;28;20240;-66
2023/08/23 20:15:16;;;;;;;4.82;3.70;;;;;;;30.51;39.62;99948.56;10410471;28;20342;-63
2023/08/23 20:20:19;;;;;;;6.35;4.13;;;;;;;28.66;41.95;99969.84;10414090;28;20204;-65
2023/08/23 20:25:21;;;;;;;6.20;4.25;;;;;;;28.01;43.16;99937.56;10412147;28;20322;-64
2023/08/23 20:30:22;;;;;;;6.80;4.25;;;;;;;29.43;40.37;99931.72;10412754;28;20208;-64
2023/08/23 20:35:26;;;;;;;4.93;3.60;;;;;;;29.41;40.48;99915.50;10411941;28;20230;-64
2023/08/23 20:40:31;;;;;;;6.47;4.38;;;;;;;29.07;41.49;99936.00;10414113;28;20219;-65
2023/08/23 20:45:33;;;;;;;5.03;4.03;;;;;;;29.63;40.47;99920.25;10405087;28;20227;-65
2023/08/23 20:50:35;;;;;;;7.43;4.15;;;;;;;28.36;41.71;99900.44;10413188;28;20217;-65
2023/08/23 20:55:40;;;;;;;6.28;3.30;;;;;;;29.74;39.08;99925.53;10412021;28;20875;-64
2023/08/23 21:00:41;;;;;;;4.78;3.70;;;;;;;27.35;42.15;99918.13;10407294;28;20316;-65
2023/08/23 21:05:43;;;;;;;5.25;3.80;;;;;;;26.96;42.98;99930.09;10407641;28;20242;-64
2023/08/23 21:10:45;;;;;;;5.25;3.85;;;;;;;26.62;44.36;99913.69;10408870;28;20315;-64
2023/08/23 21:15:48;;;;;;;7.22;4.10;;;;;;;27.15;43.20;99949.38;10413180;28;20240;-65
2023/08/23 21:20:50;;;;;;;5.35;4.20;;;;;;;29.08;41.27;99877.06;10404858;28;20272;-64
2023/08/23 21:25:52;;;;;;;5.90;4.30;;;;;;;29.26;40.73;99893.78;10407171;28;20324;-64
2023/08/23 21:30:53;;;;;;;4.88;4.18;;;;;;;28.92;40.91;99933.56;10405375;28;20236;-65
2023/08/23 21:35:55;;;;;;;5.90;4.00;;;;;;;29.90;40.19;99902.00;10414091;28;20247;-65
2023/08/23 21:40:58;;;;;;;8.77;3.53;;;;;;;29.46;39.58;99915.38;10413113;28;20605;-65
2023/08/23 21:46:03;;;;;;;5.80;3.83;;;;;;;29.30;39.78;99912.16;10404348;28;20326;-64
2023/08/23 21:51:05;;;;;;;4.97;3.67;;;;;;;28.33;40.69;99892.78;10410405;28;20306;-65
2023/08/23 21:56:07;;;;;;;6.88;4.55;;;;;;;28.69;40.68;99900.38;10411957;28;20236;-65
2023/08/23 22:01:09;;;;;;;6.43;3.80;;;;;;;28.50;41.02;99916.16;10407126;28;20244;-65
2023/08/23 22:06:13;;;;;;;6.63;4.00;;;;;;;27.05;42.59;99960.47;10409119;28;20639;-65
2023/08/23 22:11:15;;;;;;;6.13;3.90;;;;;;;26.12;44.38;99911.91;10405993;28;20696;-65
2023/08/23 22:16:19;;;;;;;8.98;5.07;;;;;;;25.01;46.63;99902.06;10406951;28;21045;-64
2023/08/23 22:21:21;;;;;;;5.68;4.28;;;;;;;25.38;45.53;99913.72;10406607;28;20778;-64
2023/08/23 22:26:23;;;;;;;8.20;4.45;;;;;;;26.30;43.46;99921.41;10408802;28;20237;-64
2023/08/23 22:31:25;;;;;;;7.78;4.43;;;;;;;26.04;44.03;99920.75;10406690;28;20263;-64
2023/08/23 22:36:26;;;;;;;7.05;4.40;;;;;;;25.88;43.98;99933.75;10392148;28;20239;-64
2023/08/23 22:41:30;;;;;;;8.65;5.18;;;;;;;25.50;45.56;99918.88;10394709;28;20236;-65
2023/08/23 22:46:31;;;;;;;6.22;5.50;;;;;;;25.35;45.67;99886.91;10407833;28;20243;-64
2023/08/23 22:51:34;;;;;;;6.07;4.85;;;;;;;24.47;47.22;99899.97;10403011;28;20341;-65
2023/08/23 22:56:36;;;;;;;6.95;5.07;;;;;;;24.69;46.50;99919.66;10410524;28;20326;-64
2023/08/23 23:01:37;;;;;;;6.10;4.55;;;;;;;24.60;46.89;99904.06;10408061;28;20224;-64
2023/08/23 23:06:39;;;;;;;6.75;4.78;;;;;;;24.91;46.08;99877.47;10404727;28;20761;-64
2023/08/23 23:11:41;;;;;;;5.75;4.68;;;;;;;26.26;44.46;99848.22;10406796;28;20326;-64
2023/08/23 23:16:42;;;;;;;7.32;5.00;;;;;;;25.72;44.56;99888.34;10400834;28;20243;-65
2023/08/23 23:21:44;;;;;;;8.43;4.80;;;;;;;25.23;45.54;99909.13;10402554;28;20235;-65